createdAt,value
2018-05-24T00:01:22.028Z,3.53
2018-05-24T00:03:49.601Z,3.77
2018-05-24T00:06:17.205Z,3.73
2018-05-24T00:08:44.813Z,3.63
2018-05-24T00:11:12.427Z,4.10
2018-05-24T00:13:40.013Z,3.80
2018-05-24T00:16:07.673Z,3.70
2018-05-24T00:18:35.258Z,3.40
2018-05-24T00:21:02.874Z,3.80
2018-05-24T00:23:30.485Z,3.40
2018-05-24T00:25:58.058Z,4.00
2018-05-24T00:28:25.672Z,3.53
2018-05-24T00:30:53.247Z,3.77
2018-05-24T00:33:20.862Z,3.43
2018-05-24T00:35:48.443Z,3.40
2018-05-24T00:38:16.064Z,3.37
2018-05-24T00:40:43.635Z,3.50
2018-05-24T00:43:11.813Z,3.63
2018-05-24T00:45:39.413Z,3.87
2018-05-24T00:48:06.992Z,4.30
2018-05-24T00:50:34.601Z,3.60
2018-05-24T00:53:02.169Z,3.80
2018-05-24T00:55:46.605Z,4.35
2018-05-24T00:58:14.186Z,3.40
2018-05-24T01:00:42.117Z,4.35
2018-05-24T01:03:09.762Z,3.58
2018-05-24T01:05:37.333Z,3.70
2018-05-24T01:08:04.951Z,4.32
2018-05-24T01:10:32.528Z,4.25
2018-05-24T01:13:00.140Z,3.50
2018-05-24T01:15:27.749Z,3.10
2018-05-24T01:17:55.330Z,4.00
2018-05-24T01:20:22.945Z,3.70
2018-05-24T01:22:50.517Z,3.33
2018-05-24T01:25:18.130Z,3.10
2018-05-24T01:27:45.708Z,3.13
2018-05-24T01:30:13.321Z,3.23
2018-05-24T01:32:40.949Z,3.63
2018-05-24T01:35:08.525Z,4.10
2018-05-24T01:37:47.749Z,3.37
2018-05-24T01:40:15.372Z,3.30
2018-05-24T01:42:42.953Z,3.00
2018-05-24T01:45:10.553Z,2.90
2018-05-24T01:47:38.453Z,2.75
2018-05-24T01:50:06.038Z,3.50
2018-05-24T01:52:33.608Z,3.50
2018-05-24T01:55:01.210Z,3.23
2018-05-24T01:57:28.810Z,3.60
2018-05-24T01:59:56.389Z,3.67
2018-05-24T02:02:24.083Z,3.30
2018-05-24T02:04:51.705Z,4.10
2018-05-24T02:07:19.320Z,3.43
2018-05-24T02:09:46.907Z,3.60
2018-05-24T02:12:14.485Z,3.60
2018-05-24T02:14:42.101Z,3.53
2018-05-24T02:17:09.673Z,3.97
2018-05-24T02:19:37.289Z,3.20
2018-05-24T02:22:04.865Z,3.70
2018-05-24T02:24:32.486Z,4.13
2018-05-24T02:27:00.101Z,4.17
2018-05-24T02:29:27.725Z,3.77
2018-05-24T02:31:55.344Z,4.22
2018-05-24T02:34:22.957Z,3.70
2018-05-24T02:36:50.539Z,4.40
2018-05-24T02:39:18.161Z,4.10
2018-05-24T02:41:45.797Z,3.85
2018-05-24T02:44:13.378Z,4.13
2018-05-24T02:46:41.002Z,4.10
2018-05-24T02:49:08.577Z,3.70
2018-05-24T02:51:36.194Z,4.00
2018-05-24T02:54:03.774Z,4.60
2018-05-24T02:56:31.397Z,3.90
2018-05-24T02:58:58.975Z,5.13
2018-05-24T03:01:26.561Z,3.83
2018-05-24T03:03:54.175Z,3.60
2018-05-24T03:06:21.764Z,3.47
2018-05-24T03:08:49.383Z,3.80
2018-05-24T03:11:16.973Z,4.03
2018-05-24T03:13:44.595Z,3.58
2018-05-24T03:16:12.188Z,3.92
2018-05-24T03:18:39.757Z,3.87
2018-05-24T03:21:07.377Z,4.05
2018-05-24T03:23:34.964Z,3.87
2018-05-24T03:26:02.584Z,4.05
2018-05-24T03:28:30.180Z,4.65
2018-05-24T03:30:57.805Z,3.42
2018-05-24T03:33:25.400Z,3.75
2018-05-24T03:35:53.038Z,4.60
2018-05-24T03:38:20.662Z,3.90
2018-05-24T03:40:48.248Z,3.73
2018-05-24T03:43:15.860Z,3.70
2018-05-24T03:45:43.477Z,4.20
2018-05-24T03:48:11.096Z,3.70
2018-05-24T03:50:38.678Z,3.77
2018-05-24T03:53:06.285Z,3.33
2018-05-24T03:55:33.892Z,4.13
2018-05-24T03:58:01.507Z,3.73
2018-05-24T04:00:40.792Z,4.00
2018-05-24T04:03:20.093Z,4.03
2018-05-24T04:05:47.764Z,3.80
2018-05-24T04:08:16.212Z,3.92
2018-05-24T04:10:43.892Z,4.23
2018-05-24T04:13:11.449Z,4.00
2018-05-24T04:15:39.076Z,4.00
2018-05-24T04:18:06.663Z,3.60
2018-05-24T04:20:34.277Z,3.43
2018-05-24T04:23:01.861Z,4.00
2018-05-24T04:25:29.478Z,3.73
2018-05-24T04:27:57.064Z,3.93
2018-05-24T04:30:24.685Z,3.60
2018-05-24T04:32:52.383Z,3.87
2018-05-24T04:35:19.908Z,3.47
2018-05-24T04:37:47.531Z,4.00
2018-05-24T04:40:15.121Z,3.13
2018-05-24T04:42:42.747Z,3.93
2018-05-24T04:45:10.515Z,3.72
2018-05-24T04:47:38.279Z,3.43
2018-05-24T04:50:05.894Z,3.70
2018-05-24T04:52:33.467Z,3.73
2018-05-24T04:55:01.157Z,3.67
2018-05-24T04:57:36.137Z,3.70
2018-05-24T05:00:08.398Z,3.43
2018-05-24T05:02:36.260Z,3.22
2018-05-24T05:05:03.894Z,3.35
2018-05-24T05:07:31.486Z,3.47
2018-05-24T05:09:59.113Z,3.07
2018-05-24T05:12:26.693Z,3.40
2018-05-24T05:14:54.291Z,3.17
2018-05-24T05:17:21.990Z,3.37
2018-05-24T05:19:49.577Z,2.70
2018-05-24T05:22:17.203Z,3.13
2018-05-24T05:24:44.778Z,3.20
2018-05-24T05:27:12.425Z,3.23
2018-05-24T05:29:40.002Z,3.27
2018-05-24T05:32:07.618Z,3.37
2018-05-24T05:34:35.241Z,2.97
2018-05-24T05:37:02.835Z,2.97
2018-05-24T05:39:30.476Z,3.10
2018-05-24T05:41:58.112Z,3.50
2018-05-24T05:44:25.700Z,3.00
2018-05-24T05:46:53.317Z,3.13
2018-05-24T05:49:20.903Z,3.50
2018-05-24T05:51:48.524Z,3.33
2018-05-24T05:54:16.118Z,3.40
2018-05-24T05:56:43.745Z,3.80
2018-05-24T05:59:11.332Z,3.55
2018-05-24T06:01:38.983Z,3.43
2018-05-24T06:04:06.582Z,3.30
2018-05-24T06:06:34.201Z,3.33
2018-05-24T06:09:01.777Z,3.30
2018-05-24T06:11:29.389Z,3.00
2018-05-24T06:13:57.055Z,3.80
2018-05-24T06:16:24.626Z,3.70
2018-05-24T06:18:52.238Z,2.97
2018-05-24T06:21:19.814Z,3.20
2018-05-24T06:23:47.425Z,3.40
2018-05-24T06:26:15.013Z,3.17
2018-05-24T06:28:42.651Z,3.80
2018-05-24T06:31:10.233Z,3.13
2018-05-24T06:33:37.952Z,3.33
2018-05-24T06:36:05.587Z,3.00
2018-05-24T06:38:33.232Z,3.30
2018-05-24T06:41:02.232Z,3.40
2018-05-24T06:43:34.568Z,3.20
2018-05-24T06:46:02.542Z,3.17
2018-05-24T06:48:30.153Z,3.20
2018-05-24T06:51:00.057Z,3.10
2018-05-24T06:53:27.701Z,3.60
2018-05-24T06:55:55.275Z,3.37
2018-05-24T06:58:22.925Z,3.30
2018-05-24T07:00:50.589Z,3.63
2018-05-24T07:03:18.162Z,2.60
2018-05-24T07:05:45.768Z,3.30
2018-05-24T07:08:13.373Z,3.03
2018-05-24T07:10:40.989Z,4.13
2018-05-24T07:13:08.682Z,3.50
2018-05-24T07:15:37.138Z,3.20
2018-05-24T07:18:04.755Z,3.10
2018-05-24T07:20:32.352Z,2.80
2018-05-24T07:23:00.001Z,3.37
2018-05-24T07:25:27.657Z,3.13
2018-05-24T07:27:55.274Z,3.83
2018-05-24T07:30:22.883Z,3.33
2018-05-24T07:32:50.562Z,2.80
2018-05-24T07:35:18.148Z,3.00
2018-05-24T07:37:45.792Z,2.67
2018-05-24T07:40:13.384Z,2.70
2018-05-24T07:42:41.009Z,3.20
2018-05-24T07:45:08.710Z,2.97
2018-05-24T07:47:36.317Z,3.03
2018-05-24T07:50:03.925Z,3.20
2018-05-24T07:52:31.590Z,2.73
2018-05-24T07:54:59.618Z,3.17
2018-05-24T07:57:27.395Z,2.87
2018-05-24T07:59:54.989Z,3.50
2018-05-24T08:02:22.591Z,2.80
2018-05-24T08:04:50.221Z,2.90
2018-05-24T08:07:17.815Z,2.80
2018-05-24T08:09:45.443Z,3.10
2018-05-24T08:12:13.154Z,2.50
2018-05-24T08:14:40.721Z,2.70
2018-05-24T08:17:08.372Z,2.63
2018-05-24T08:19:35.945Z,2.53
2018-05-24T08:22:03.673Z,2.90
2018-05-24T08:24:31.288Z,2.70
2018-05-24T08:26:59.017Z,2.63
2018-05-24T08:29:26.593Z,2.60
2018-05-24T08:31:54.237Z,2.47
2018-05-24T08:34:21.892Z,2.60
2018-05-24T08:36:49.525Z,2.60
2018-05-24T08:39:17.189Z,2.87
2018-05-24T08:41:44.815Z,2.40
2018-05-24T08:44:12.442Z,2.70
2018-05-24T08:46:40.021Z,2.70
2018-05-24T08:49:07.655Z,2.50
2018-05-24T08:51:35.269Z,2.87
2018-05-24T08:54:03.279Z,2.40
2018-05-24T08:56:30.858Z,2.57
2018-05-24T08:58:58.495Z,2.43
2018-05-24T09:01:26.098Z,2.57
2018-05-24T09:03:53.718Z,2.72
2018-05-24T09:06:21.385Z,2.40
2018-05-24T09:08:49.024Z,2.70
2018-05-24T09:11:16.648Z,2.43
2018-05-24T09:13:44.387Z,2.50
2018-05-24T09:16:11.976Z,2.40
2018-05-24T09:18:39.593Z,2.30
2018-05-24T09:21:07.204Z,2.40
2018-05-24T09:23:34.819Z,2.23
2018-05-24T09:26:02.455Z,2.60
2018-05-24T09:28:30.068Z,2.50
2018-05-24T09:30:57.706Z,2.50
2018-05-24T09:33:25.370Z,3.30
2018-05-24T09:35:53.616Z,2.65
2018-05-24T09:38:21.255Z,2.50
2018-05-24T09:40:48.877Z,2.90
2018-05-24T09:43:16.503Z,2.43
2018-05-24T09:45:44.138Z,2.63
2018-05-24T09:48:11.754Z,2.70
2018-05-24T09:50:39.326Z,2.63
2018-05-24T09:53:06.990Z,2.50
2018-05-24T09:55:34.574Z,3.20
2018-05-24T09:58:02.185Z,2.80
2018-05-24T10:00:29.811Z,2.87
2018-05-24T10:02:57.451Z,2.60
2018-05-24T10:05:32.166Z,2.80
2018-05-24T10:08:09.258Z,2.60
2018-05-24T10:35:12.081Z,3.17
2018-05-24T10:37:40.305Z,2.90
2018-05-24T10:40:07.932Z,3.07
2018-05-24T10:42:35.575Z,2.90
2018-05-24T10:45:03.214Z,3.70
2018-05-24T10:47:30.829Z,3.60
2018-05-24T10:49:58.425Z,3.67
2018-05-24T10:52:27.349Z,3.20
2018-05-24T10:54:55.073Z,3.27
2018-05-24T10:57:22.846Z,2.97
2018-05-24T10:59:50.469Z,3.05
2018-05-24T11:02:18.051Z,3.20
2018-05-24T11:04:45.681Z,3.80
2018-05-24T11:07:13.311Z,2.93
2018-05-24T11:09:41.970Z,3.53
2018-05-24T11:12:13.782Z,3.60
2018-05-24T11:14:42.881Z,3.27
2018-05-24T11:17:10.497Z,3.40
2018-05-24T11:19:38.198Z,2.50
2018-05-24T11:22:05.823Z,3.33
2018-05-24T11:24:33.621Z,3.47
2018-05-24T11:27:01.264Z,3.57
2018-05-24T11:29:37.565Z,3.17
2018-05-24T11:32:05.185Z,2.67
2018-05-24T11:34:32.813Z,3.20
2018-05-24T11:37:00.462Z,3.60
2018-05-24T11:39:28.164Z,3.13
2018-05-24T11:41:55.795Z,3.43
2018-05-24T11:44:23.422Z,3.00
2018-05-24T11:46:51.035Z,3.57
2018-05-24T11:49:18.661Z,2.90
2018-05-24T11:51:47.120Z,3.17
2018-05-24T11:54:14.809Z,2.50
2018-05-24T11:56:42.437Z,2.80
2018-05-24T11:59:10.085Z,2.63
2018-05-24T12:01:37.721Z,2.87
2018-05-24T12:04:05.317Z,2.97
2018-05-24T12:06:32.948Z,2.60
2018-05-24T12:09:00.554Z,2.83
2018-05-24T12:11:28.189Z,3.20
2018-05-24T12:13:55.817Z,2.60
2018-05-24T12:16:23.415Z,3.27
2018-05-24T12:18:51.082Z,3.03
2018-05-24T12:21:18.701Z,3.83
2018-05-24T12:23:46.355Z,2.67
2018-05-24T12:26:14.033Z,2.67
2018-05-24T12:28:41.656Z,3.80
2018-05-24T12:31:09.462Z,2.80
2018-05-24T12:33:37.189Z,3.50
2018-05-24T12:36:04.846Z,3.20
2018-05-24T12:38:32.576Z,2.67
2018-05-24T12:41:00.219Z,2.40
2018-05-24T12:43:27.900Z,2.80
2018-05-24T12:45:56.088Z,2.97
2018-05-24T12:48:23.677Z,2.87
2018-05-24T12:50:51.325Z,3.10
2018-05-24T12:53:18.923Z,2.97
2018-05-24T12:55:46.513Z,3.00
2018-05-24T12:58:14.127Z,2.83
2018-05-24T13:00:41.812Z,2.83
2018-05-24T13:03:09.660Z,3.10
2018-05-24T13:05:37.305Z,2.65
2018-05-24T13:08:04.929Z,2.80
2018-05-24T13:10:32.577Z,2.47
2018-05-24T13:13:00.333Z,3.63
2018-05-24T13:15:27.981Z,2.60
2018-05-24T13:17:55.633Z,2.90
2018-05-24T13:20:23.261Z,2.30
2018-05-24T13:22:50.852Z,2.43
2018-05-24T13:25:19.528Z,2.60
2018-05-24T13:27:47.381Z,2.70
2018-05-24T13:30:16.053Z,2.70
2018-05-24T13:32:43.902Z,2.90
2018-05-24T13:35:11.499Z,2.73
2018-05-24T13:37:39.143Z,2.80
2018-05-24T13:40:06.794Z,2.70
2018-05-24T13:42:34.637Z,2.80
2018-05-24T13:45:02.564Z,2.73
2018-05-24T13:47:30.265Z,2.33
2018-05-24T13:49:57.882Z,2.73
2018-05-24T13:52:25.505Z,3.10
2018-05-24T13:54:53.114Z,3.37
2018-05-24T13:57:32.457Z,2.23
2018-05-24T14:00:00.037Z,2.37
2018-05-24T14:02:27.622Z,2.60
2018-05-24T14:04:55.232Z,2.30
2018-05-24T14:07:23.457Z,2.70
2018-05-24T14:09:51.068Z,2.80
2018-05-24T14:12:18.702Z,2.17
2018-05-24T14:14:46.318Z,2.33
2018-05-24T14:17:13.928Z,3.13
2018-05-24T14:19:41.505Z,3.03
2018-05-24T14:22:09.134Z,2.77
2018-05-24T14:24:36.763Z,2.83
2018-05-24T14:27:04.405Z,2.40
2018-05-24T14:29:31.995Z,2.47
2018-05-24T14:31:59.593Z,2.97
2018-05-24T14:34:27.228Z,2.80
2018-05-24T14:36:54.809Z,3.37
2018-05-24T14:39:22.401Z,2.10
2018-05-24T14:41:50.031Z,2.70
2018-05-24T14:44:17.672Z,2.75
2018-05-24T14:46:45.493Z,2.20
2018-05-24T14:49:13.496Z,2.67
2018-05-24T14:51:41.165Z,2.67
2018-05-24T14:54:08.925Z,2.87
2018-05-24T14:56:36.622Z,2.60
2018-05-24T14:59:04.224Z,2.80
2018-05-24T15:01:31.877Z,2.77
2018-05-24T15:03:59.501Z,2.97
2018-05-24T15:06:27.115Z,3.30
2018-05-24T15:08:54.796Z,3.40
2018-05-24T15:11:23.517Z,2.83
2018-05-24T15:13:51.983Z,3.78
2018-05-24T15:16:19.565Z,2.33
2018-05-24T15:18:47.618Z,2.73
2018-05-24T15:21:15.501Z,3.30
2018-05-24T15:23:43.226Z,3.60
2018-05-24T15:26:10.882Z,3.60
2018-05-24T15:31:28.769Z,3.23
2018-05-24T15:33:56.415Z,3.20
2018-05-24T15:36:24.005Z,3.30
2018-05-24T15:38:54.627Z,2.63
2018-05-24T15:41:22.730Z,3.83
2018-05-24T15:43:50.346Z,3.20
2018-05-24T15:46:17.957Z,3.33
2018-05-24T15:48:45.578Z,2.93
2018-05-24T15:51:13.200Z,3.40
2018-05-24T15:53:40.837Z,2.90
2018-05-24T15:56:08.425Z,3.10
2018-05-24T15:58:36.053Z,3.50
2018-05-24T16:01:03.714Z,3.00
2018-05-24T16:03:31.312Z,3.57
2018-05-24T16:05:59.264Z,3.33
2018-05-24T16:08:27.254Z,3.37
2018-05-24T16:10:54.829Z,2.97
2018-05-24T16:13:22.462Z,2.77
2018-05-24T16:15:50.076Z,3.00
2018-05-24T16:18:17.699Z,3.33
2018-05-24T16:20:45.305Z,3.70
2018-05-24T16:23:12.914Z,3.10
2018-05-24T16:25:40.549Z,3.50
2018-05-24T16:28:08.166Z,3.13
2018-05-24T16:30:35.940Z,3.23
2018-05-24T16:33:03.561Z,3.17
2018-05-24T16:35:31.174Z,3.10
2018-05-24T16:37:58.757Z,2.77
2018-05-24T16:40:26.389Z,3.00
2018-05-24T16:42:59.622Z,3.23
2018-05-24T16:45:27.260Z,3.33
2018-05-24T16:47:54.954Z,2.53
2018-05-24T16:50:22.602Z,2.87
2018-05-24T16:52:53.072Z,3.13
2018-05-24T16:55:23.469Z,2.77
2018-05-24T16:57:51.049Z,3.27
2018-05-24T17:00:18.637Z,2.90
2018-05-24T17:02:46.360Z,2.90
2018-05-24T17:05:14.168Z,3.27
2018-05-24T17:07:41.829Z,2.72
2018-05-24T17:10:11.460Z,3.00
2018-05-24T17:12:39.152Z,2.90
2018-05-24T17:15:06.881Z,3.20
2018-05-24T17:17:35.749Z,2.70
2018-05-24T17:20:05.128Z,3.43
2018-05-24T17:22:32.741Z,2.83
2018-05-24T17:25:00.331Z,2.57
2018-05-24T17:27:27.953Z,2.80
2018-05-24T17:29:55.581Z,2.90
2018-05-24T17:32:31.528Z,3.07
2018-05-24T17:34:59.125Z,3.08
2018-05-24T17:37:26.778Z,3.30
2018-05-24T17:39:54.397Z,3.50
2018-05-24T17:42:21.986Z,3.10
2018-05-24T17:44:49.635Z,3.13
2018-05-24T17:47:18.938Z,3.40
2018-05-24T17:49:46.814Z,4.03
2018-05-24T17:52:14.420Z,3.30
2018-05-24T17:54:42.057Z,3.07
2018-05-24T17:57:09.707Z,3.20
2018-05-24T17:59:37.304Z,2.43
2018-05-24T18:02:04.950Z,2.72
2018-05-24T18:04:32.609Z,2.80
2018-05-24T18:08:56.149Z,3.00
2018-05-24T18:11:23.774Z,3.20
2018-05-24T18:13:51.424Z,2.97
2018-05-24T18:16:19.143Z,2.80
2018-05-24T18:18:46.781Z,3.80
2018-05-24T18:21:14.528Z,3.20
2018-05-24T18:23:42.173Z,3.10
2018-05-24T18:26:09.831Z,2.97
2018-05-24T18:28:37.541Z,2.80
2018-05-24T18:31:05.230Z,3.10
2018-05-24T18:33:33.057Z,2.90
2018-05-24T18:36:00.808Z,3.13
2018-05-24T18:38:28.593Z,3.50
2018-05-24T18:40:56.231Z,3.23
2018-05-24T18:43:23.837Z,3.13
2018-05-24T18:45:51.445Z,2.67
2018-05-24T18:48:19.064Z,3.85
2018-05-24T18:50:46.710Z,3.13
2018-05-24T18:53:14.337Z,3.40
2018-05-24T18:55:41.960Z,3.00
2018-05-24T18:58:09.601Z,2.73
2018-05-24T19:00:37.234Z,3.20
2018-05-24T19:03:04.865Z,2.93
2018-05-24T19:05:32.589Z,3.00
2018-05-24T19:08:00.216Z,2.70
2018-05-24T19:10:27.837Z,2.70
2018-05-24T19:12:55.453Z,2.50
2018-05-24T19:15:23.062Z,2.90
2018-05-24T19:17:50.673Z,3.10
2018-05-24T19:20:18.503Z,2.80
2018-05-24T19:22:46.113Z,3.08
2018-05-24T19:25:13.733Z,2.53
2018-05-24T19:27:41.346Z,3.37
2018-05-24T19:30:08.989Z,2.70
2018-05-24T19:32:36.632Z,3.35
2018-05-24T19:35:04.344Z,3.10
2018-05-24T19:37:31.980Z,3.22
2018-05-24T19:39:59.618Z,3.17
2018-05-24T19:42:27.884Z,2.90
2018-05-24T19:44:55.584Z,3.60
2018-05-24T19:47:23.531Z,3.17
2018-05-24T19:49:51.676Z,3.00
2018-05-24T19:52:19.307Z,2.57
2018-05-24T19:54:47.160Z,2.57
2018-05-24T19:57:14.801Z,3.03
2018-05-24T19:59:42.429Z,2.93
2018-05-24T20:02:10.076Z,3.45
2018-05-24T20:04:37.759Z,3.13
2018-05-24T20:07:05.440Z,3.17
2018-05-24T20:09:34.750Z,2.77
2018-05-24T20:12:02.477Z,3.22
2018-05-24T20:14:30.393Z,3.10
2018-05-24T20:16:58.100Z,3.03
2018-05-24T20:19:26.120Z,2.80
2018-05-24T20:21:53.889Z,2.47
2018-05-24T20:24:26.998Z,2.70
2018-05-24T20:27:03.936Z,2.40
2018-05-24T20:29:37.935Z,3.13
2018-05-24T20:32:11.793Z,2.53
2018-05-24T20:34:45.270Z,2.93
2018-05-24T20:37:20.547Z,2.97
2018-05-24T20:39:55.376Z,2.80
2018-05-24T20:42:29.338Z,3.17
2018-05-24T20:45:03.042Z,4.53
2018-05-24T20:47:35.871Z,2.78
2018-05-24T20:50:08.131Z,3.27
2018-05-24T20:52:41.784Z,2.57
2018-05-24T20:55:15.354Z,2.90
2018-05-24T20:57:49.472Z,3.20
2018-05-24T21:00:21.135Z,3.05
2018-05-24T21:02:55.465Z,3.27
2018-05-24T21:08:07.262Z,3.00
2018-05-24T21:10:40.097Z,2.90
2018-05-24T21:13:13.113Z,2.78
2018-05-24T21:15:46.689Z,3.50
2018-05-24T21:18:19.310Z,4.56
2018-05-24T21:20:52.568Z,3.30
2018-05-24T21:23:29.314Z,3.30
2018-05-24T21:26:02.996Z,2.90
2018-05-24T21:28:36.381Z,3.58
2018-05-24T21:31:11.648Z,3.95
2018-05-24T21:33:44.959Z,2.83
2018-05-24T21:36:19.428Z,3.10
2018-05-24T21:38:51.520Z,3.47
2018-05-24T21:41:22.790Z,3.40
2018-05-24T21:43:55.462Z,2.70
2018-05-24T21:46:29.437Z,3.23
2018-05-24T21:49:02.694Z,3.53
2018-05-24T21:51:36.408Z,4.27
2018-05-24T21:54:08.632Z,3.05
2018-05-24T21:56:41.996Z,3.70
2018-05-24T21:59:15.477Z,3.70
2018-05-24T22:01:49.038Z,3.60
2018-05-24T22:04:22.699Z,3.50
2018-05-24T22:06:56.666Z,3.37
2018-05-24T22:09:29.921Z,3.53
2018-05-24T22:11:57.797Z,3.53
2018-05-24T22:14:25.463Z,3.33
2018-05-24T22:16:53.190Z,3.78
2018-05-24T22:19:20.939Z,3.77
2018-05-24T22:21:48.636Z,3.80
2018-05-24T22:24:16.326Z,3.42
2018-05-24T22:26:44.027Z,4.70
2018-05-24T22:29:11.702Z,3.58
2018-05-24T22:31:39.361Z,3.70
2018-05-24T22:34:07.050Z,3.80
2018-05-24T22:36:34.758Z,3.20
2018-05-24T22:39:02.457Z,4.00
2018-05-24T22:41:30.181Z,3.97
2018-05-24T22:43:57.863Z,3.80
2018-05-24T22:46:25.513Z,3.47
2018-05-24T22:48:53.199Z,3.40
2018-05-24T22:51:20.863Z,3.93
2018-05-24T22:53:48.559Z,4.20
2018-05-24T22:56:16.292Z,4.23
2018-05-24T22:58:43.967Z,3.53
2018-05-24T23:01:11.665Z,3.40
2018-05-24T23:03:39.338Z,4.80
2018-05-24T23:06:06.986Z,3.33
2018-05-24T23:08:34.678Z,4.03
2018-05-24T23:11:02.372Z,4.57
2018-05-24T23:13:30.054Z,3.97
2018-05-24T23:15:57.732Z,3.87
2018-05-24T23:18:25.415Z,3.90
2018-05-24T23:20:53.169Z,4.20
2018-05-24T23:23:20.854Z,3.67
2018-05-24T23:25:48.511Z,3.43
2018-05-24T23:28:16.231Z,3.80
2018-05-24T23:30:43.906Z,4.10
2018-05-24T23:33:11.566Z,3.70
2018-05-24T23:35:39.265Z,4.27
2018-05-24T23:38:07.166Z,4.00
2018-05-24T23:40:34.857Z,3.80
2018-05-24T23:43:02.535Z,3.60
2018-05-24T23:45:30.245Z,4.32
2018-05-24T23:47:57.933Z,4.73
2018-05-24T23:50:25.625Z,4.40
2018-05-24T23:52:53.315Z,3.90
2018-05-24T23:55:21.013Z,4.10
2018-05-24T23:57:48.689Z,4.90
